Columbia, Missouri
Current Conditions -  °F | °C
As of 11:54 AM on Tuesday 21 Oct 2014 (Local Time) from KCOU Reporting Station
Clear Clear  
Wind Chill: 21°   Ceiling: Unl
Heat Index: 21°   Visibility: 10mi
Dew Point:   Wind: 8mph
Humidity: 42%   Direction: 360°N
Pressure: 30.14"   Gusts: NA
Location:  38.95°N, 92.33°W
Report Text: KCOU 211654Z 36007KT 10SM CLR 21/07 A3014 RMK AO2 SLP202 T02060072
Loading
Personal Weather Stations






























Interactive Weather Map
Tropical Storm Tracking
New forecast layout! Learn more

10-Day Weather Forecast

Advertisements
Track Severe Weather on mobile